sensor_id;sensor_type;location;lat;lon;timestamp;P1;durP1;ratioP1;P2;durP2;ratioP2
37781;SDS011;23621;50.878;4.584;2023-10-09T00:01:38;8.32;;;5.55;;
37781;SDS011;23621;50.878;4.584;2023-10-09T00:04:29;9.50;;;6.15;;
37781;SDS011;23621;50.878;4.584;2023-10-09T00:07:17;7.13;;;5.40;;
37781;SDS011;23621;50.878;4.584;2023-10-09T00:10:04;8.68;;;6.13;;
37781;SDS011;23621;50.878;4.584;2023-10-09T00:12:59;8.88;;;6.03;;
37781;SDS011;23621;50.878;4.584;2023-10-09T00:15:46;9.30;;;6.35;;
37781;SDS011;23621;50.878;4.584;2023-10-09T00:18:39;7.20;;;5.60;;
37781;SDS011;23621;50.878;4.584;2023-10-09T00:21:33;8.80;;;6.60;;
37781;SDS011;23621;50.878;4.584;2023-10-09T00:24:21;8.82;;;6.22;;
37781;SDS011;23621;50.878;4.584;2023-10-09T00:27:11;7.90;;;5.82;;
37781;SDS011;23621;50.878;4.584;2023-10-09T00:29:59;7.65;;;5.82;;
37781;SDS011;23621;50.878;4.584;2023-10-09T00:32:47;9.85;;;6.80;;
37781;SDS011;23621;50.878;4.584;2023-10-09T00:35:54;8.90;;;5.95;;
37781;SDS011;23621;50.878;4.584;2023-10-09T00:38:42;9.00;;;6.50;;
37781;SDS011;23621;50.878;4.584;2023-10-09T00:41:33;7.70;;;5.68;;
37781;SDS011;23621;50.878;4.584;2023-10-09T00:44:22;8.52;;;5.72;;
37781;SDS011;23621;50.878;4.584;2023-10-09T00:47:10;8.95;;;6.68;;
37781;SDS011;23621;50.878;4.584;2023-10-09T00:50:08;7.05;;;6.32;;
37781;SDS011;23621;50.878;4.584;2023-10-09T00:53:02;9.98;;;6.50;;
37781;SDS011;23621;50.878;4.584;2023-10-09T00:55:51;7.72;;;6.43;;
37781;SDS011;23621;50.878;4.584;2023-10-09T00:58:42;10.05;;;6.32;;
37781;SDS011;23621;50.878;4.584;2023-10-09T01:01:29;9.05;;;6.55;;
37781;SDS011;23621;50.878;4.584;2023-10-09T01:04:25;9.90;;;6.80;;
37781;SDS011;23621;50.878;4.584;2023-10-09T01:07:15;8.38;;;6.30;;
37781;SDS011;23621;50.878;4.584;2023-10-09T01:10:07;8.75;;;6.13;;
37781;SDS011;23621;50.878;4.584;2023-10-09T01:12:58;8.80;;;6.47;;
37781;SDS011;23621;50.878;4.584;2023-10-09T01:15:45;9.48;;;7.05;;
37781;SDS011;23621;50.878;4.584;2023-10-09T01:18:32;8.02;;;6.50;;
37781;SDS011;23621;50.878;4.584;2023-10-09T01:21:25;8.85;;;6.75;;
37781;SDS011;23621;50.878;4.584;2023-10-09T01:24:18;9.27;;;6.72;;
37781;SDS011;23621;50.878;4.584;2023-10-09T01:27:06;8.05;;;6.38;;
37781;SDS011;23621;50.878;4.584;2023-10-09T01:30:03;9.43;;;6.88;;
37781;SDS011;23621;50.878;4.584;2023-10-09T01:32:51;9.07;;;6.03;;
37781;SDS011;23621;50.878;4.584;2023-10-09T01:35:39;9.43;;;6.85;;
37781;SDS011;23621;50.878;4.584;2023-10-09T01:38:34;7.57;;;6.00;;
37781;SDS011;23621;50.878;4.584;2023-10-09T01:41:28;8.88;;;6.20;;
37781;SDS011;23621;50.878;4.584;2023-10-09T01:44:20;10.05;;;6.45;;
37781;SDS011;23621;50.878;4.584;2023-10-09T01:47:09;8.55;;;6.35;;
37781;SDS011;23621;50.878;4.584;2023-10-09T01:50:00;7.68;;;5.85;;
37781;SDS011;23621;50.878;4.584;2023-10-09T01:52:51;10.52;;;6.68;;
37781;SDS011;23621;50.878;4.584;2023-10-09T01:55:39;7.80;;;6.30;;
37781;SDS011;23621;50.878;4.584;2023-10-09T01:58:27;10.25;;;6.57;;
37781;SDS011;23621;50.878;4.584;2023-10-09T02:01:19;10.35;;;6.70;;
37781;SDS011;23621;50.878;4.584;2023-10-09T02:04:07;8.82;;;6.55;;
37781;SDS011;23621;50.878;4.584;2023-10-09T02:07:01;8.75;;;6.68;;
37781;SDS011;23621;50.878;4.584;2023-10-09T02:09:54;8.23;;;6.43;;
37781;SDS011;23621;50.878;4.584;2023-10-09T02:12:42;8.77;;;6.80;;
37781;SDS011;23621;50.878;4.584;2023-10-09T02:15:30;8.88;;;6.20;;
37781;SDS011;23621;50.878;4.584;2023-10-09T02:18:30;7.00;;;6.30;;
37781;SDS011;23621;50.878;4.584;2023-10-09T02:21:20;8.85;;;6.63;;
37781;SDS011;23621;50.878;4.584;2023-10-09T02:24:20;7.93;;;6.80;;
37781;SDS011;23621;50.878;4.584;2023-10-09T02:27:33;8.13;;;6.43;;
37781;SDS011;23621;50.878;4.584;2023-10-09T02:30:31;9.13;;;6.70;;
37781;SDS011;23621;50.878;4.584;2023-10-09T02:33:21;9.55;;;7.05;;
37781;SDS011;23621;50.878;4.584;2023-10-09T02:36:14;8.63;;;6.70;;
37781;SDS011;23621;50.878;4.584;2023-10-09T02:39:01;8.40;;;6.82;;
37781;SDS011;23621;50.878;4.584;2023-10-09T02:41:53;10.30;;;6.85;;
37781;SDS011;23621;50.878;4.584;2023-10-09T02:44:48;10.82;;;7.13;;
37781;SDS011;23621;50.878;4.584;2023-10-09T02:47:39;7.45;;;6.63;;
37781;SDS011;23621;50.878;4.584;2023-10-09T02:50:26;8.18;;;6.25;;
37781;SDS011;23621;50.878;4.584;2023-10-09T02:53:15;7.85;;;6.63;;
37781;SDS011;23621;50.878;4.584;2023-10-09T02:56:15;9.15;;;6.78;;
37781;SDS011;23621;50.878;4.584;2023-10-09T02:59:05;9.70;;;7.32;;
37781;SDS011;23621;50.878;4.584;2023-10-09T03:01:55;11.70;;;7.20;;
37781;SDS011;23621;50.878;4.584;2023-10-09T03:04:42;9.75;;;7.38;;
37781;SDS011;23621;50.878;4.584;2023-10-09T03:07:29;8.52;;;7.30;;
37781;SDS011;23621;50.878;4.584;2023-10-09T03:10:16;10.40;;;6.75;;
37781;SDS011;23621;50.878;4.584;2023-10-09T03:13:04;8.30;;;6.65;;
37781;SDS011;23621;50.878;4.584;2023-10-09T03:15:54;8.43;;;7.00;;
37781;SDS011;23621;50.878;4.584;2023-10-09T03:18:41;12.35;;;7.35;;
37781;SDS011;23621;50.878;4.584;2023-10-09T03:21:29;9.82;;;7.10;;
37781;SDS011;23621;50.878;4.584;2023-10-09T03:24:16;10.90;;;7.03;;
37781;SDS011;23621;50.878;4.584;2023-10-09T03:27:06;10.27;;;7.22;;
37781;SDS011;23621;50.878;4.584;2023-10-09T03:29:54;9.75;;;6.97;;
37781;SDS011;23621;50.878;4.584;2023-10-09T03:32:41;9.90;;;7.18;;
37781;SDS011;23621;50.878;4.584;2023-10-09T03:35:28;10.00;;;7.07;;
37781;SDS011;23621;50.878;4.584;2023-10-09T03:38:20;10.27;;;7.07;;
37781;SDS011;23621;50.878;4.584;2023-10-09T03:41:07;11.60;;;7.60;;
37781;SDS011;23621;50.878;4.584;2023-10-09T03:44:02;11.50;;;7.38;;
37781;SDS011;23621;50.878;4.584;2023-10-09T03:46:49;9.63;;;7.40;;
37781;SDS011;23621;50.878;4.584;2023-10-09T03:49:38;10.38;;;7.82;;
37781;SDS011;23621;50.878;4.584;2023-10-09T03:52:26;13.18;;;7.88;;
37781;SDS011;23621;50.878;4.584;2023-10-09T03:55:15;9.82;;;7.78;;
37781;SDS011;23621;50.878;4.584;2023-10-09T03:58:02;9.63;;;6.95;;
37781;SDS011;23621;50.878;4.584;2023-10-09T04:00:49;9.60;;;8.05;;
37781;SDS011;23621;50.878;4.584;2023-10-09T04:03:38;9.23;;;7.68;;
37781;SDS011;23621;50.878;4.584;2023-10-09T04:06:29;10.95;;;7.35;;
37781;SDS011;23621;50.878;4.584;2023-10-09T04:09:19;8.82;;;7.50;;
37781;SDS011;23621;50.878;4.584;2023-10-09T04:12:06;8.95;;;7.32;;
37781;SDS011;23621;50.878;4.584;2023-10-09T04:14:56;9.25;;;7.57;;
37781;SDS011;23621;50.878;4.584;2023-10-09T04:17:48;10.57;;;8.02;;
37781;SDS011;23621;50.878;4.584;2023-10-09T04:20:38;9.77;;;7.63;;
37781;SDS011;23621;50.878;4.584;2023-10-09T04:23:45;11.90;;;7.88;;
37781;SDS011;23621;50.878;4.584;2023-10-09T04:26:51;9.35;;;7.38;;
37781;SDS011;23621;50.878;4.584;2023-10-09T04:29:44;12.10;;;8.20;;
37781;SDS011;23621;50.878;4.584;2023-10-09T04:32:33;10.73;;;8.50;;
37781;SDS011;23621;50.878;4.584;2023-10-09T04:35:21;10.95;;;8.15;;
37781;SDS011;23621;50.878;4.584;2023-10-09T04:38:13;10.10;;;8.10;;
37781;SDS011;23621;50.878;4.584;2023-10-09T04:41:00;12.45;;;8.70;;
37781;SDS011;23621;50.878;4.584;2023-10-09T04:43:51;11.25;;;8.50;;
37781;SDS011;23621;50.878;4.584;2023-10-09T04:46:39;9.80;;;7.88;;
37781;SDS011;23621;50.878;4.584;2023-10-09T04:49:30;10.82;;;8.13;;
37781;SDS011;23621;50.878;4.584;2023-10-09T04:52:32;10.02;;;8.10;;
37781;SDS011;23621;50.878;4.584;2023-10-09T04:55:19;10.43;;;8.25;;
37781;SDS011;23621;50.878;4.584;2023-10-09T04:58:11;11.25;;;8.45;;
37781;SDS011;23621;50.878;4.584;2023-10-09T05:01:10;11.55;;;8.90;;
37781;SDS011;23621;50.878;4.584;2023-10-09T05:04:02;11.98;;;9.05;;
37781;SDS011;23621;50.878;4.584;2023-10-09T05:07:06;11.45;;;8.98;;
37781;SDS011;23621;50.878;4.584;2023-10-09T05:10:12;9.98;;;8.43;;
37781;SDS011;23621;50.878;4.584;2023-10-09T05:13:10;10.98;;;8.75;;
37781;SDS011;23621;50.878;4.584;2023-10-09T05:16:00;13.75;;;8.95;;
37781;SDS011;23621;50.878;4.584;2023-10-09T05:18:49;11.20;;;9.18;;
37781;SDS011;23621;50.878;4.584;2023-10-09T05:21:44;14.13;;;9.55;;
37781;SDS011;23621;50.878;4.584;2023-10-09T05:24:31;11.27;;;9.43;;
37781;SDS011;23621;50.878;4.584;2023-10-09T05:27:30;12.25;;;9.13;;
37781;SDS011;23621;50.878;4.584;2023-10-09T05:30:37;12.57;;;9.23;;
37781;SDS011;23621;50.878;4.584;2023-10-09T05:33:29;14.40;;;9.90;;
37781;SDS011;23621;50.878;4.584;2023-10-09T05:36:16;12.20;;;9.40;;
37781;SDS011;23621;50.878;4.584;2023-10-09T05:39:18;12.13;;;9.25;;
37781;SDS011;23621;50.878;4.584;2023-10-09T05:42:28;10.90;;;8.55;;
37781;SDS011;23621;50.878;4.584;2023-10-09T05:45:28;14.85;;;9.40;;
37781;SDS011;23621;50.878;4.584;2023-10-09T05:48:35;10.73;;;9.00;;
37781;SDS011;23621;50.878;4.584;2023-10-09T05:51:25;11.70;;;9.27;;
37781;SDS011;23621;50.878;4.584;2023-10-09T05:54:31;11.48;;;9.43;;
37781;SDS011;23621;50.878;4.584;2023-10-09T05:57:37;10.05;;;8.95;;
37781;SDS011;23621;50.878;4.584;2023-10-09T06:00:42;14.90;;;9.50;;
37781;SDS011;23621;50.878;4.584;2023-10-09T06:03:48;15.90;;;9.25;;
37781;SDS011;23621;50.878;4.584;2023-10-09T06:06:36;22.20;;;10.85;;
37781;SDS011;23621;50.878;4.584;2023-10-09T06:09:31;18.55;;;9.63;;
37781;SDS011;23621;50.878;4.584;2023-10-09T06:12:37;14.50;;;10.25;;
37781;SDS011;23621;50.878;4.584;2023-10-09T06:15:35;17.30;;;10.68;;
37781;SDS011;23621;50.878;4.584;2023-10-09T06:18:34;14.48;;;10.93;;
37781;SDS011;23621;50.878;4.584;2023-10-09T06:21:21;22.27;;;11.00;;
37781;SDS011;23621;50.878;4.584;2023-10-09T06:24:47;14.43;;;11.02;;
37781;SDS011;23621;50.878;4.584;2023-10-09T06:27:40;17.13;;;10.90;;
37781;SDS011;23621;50.878;4.584;2023-10-09T06:30:43;17.17;;;10.80;;
37781;SDS011;23621;50.878;4.584;2023-10-09T06:33:34;19.17;;;11.35;;
37781;SDS011;23621;50.878;4.584;2023-10-09T06:36:41;25.60;;;11.65;;
37781;SDS011;23621;50.878;4.584;2023-10-09T06:39:39;18.92;;;11.25;;
37781;SDS011;23621;50.878;4.584;2023-10-09T06:42:41;19.20;;;10.98;;
37781;SDS011;23621;50.878;4.584;2023-10-09T06:45:29;21.50;;;11.40;;
37781;SDS011;23621;50.878;4.584;2023-10-09T06:48:30;21.45;;;11.55;;
37781;SDS011;23621;50.878;4.584;2023-10-09T06:51:21;25.73;;;10.75;;
37781;SDS011;23621;50.878;4.584;2023-10-09T06:54:11;19.38;;;10.35;;
37781;SDS011;23621;50.878;4.584;2023-10-09T06:57:03;17.27;;;10.40;;
37781;SDS011;23621;50.878;4.584;2023-10-09T06:59:59;16.83;;;10.50;;
37781;SDS011;23621;50.878;4.584;2023-10-09T07:03:22;12.45;;;10.20;;
37781;SDS011;23621;50.878;4.584;2023-10-09T07:06:16;11.65;;;9.00;;
37781;SDS011;23621;50.878;4.584;2023-10-09T07:09:12;14.65;;;10.02;;
37781;SDS011;23621;50.878;4.584;2023-10-09T07:12:00;13.88;;;10.25;;
37781;SDS011;23621;50.878;4.584;2023-10-09T07:14:50;14.35;;;10.07;;
37781;SDS011;23621;50.878;4.584;2023-10-09T07:17:37;14.07;;;10.18;;
37781;SDS011;23621;50.878;4.584;2023-10-09T07:20:25;15.48;;;9.68;;
37781;SDS011;23621;50.878;4.584;2023-10-09T07:23:25;12.88;;;9.07;;
37781;SDS011;23621;50.878;4.584;2023-10-09T07:26:16;13.32;;;10.00;;
37781;SDS011;23621;50.878;4.584;2023-10-09T07:29:11;15.00;;;9.90;;
37781;SDS011;23621;50.878;4.584;2023-10-09T07:32:08;14.75;;;9.93;;
37781;SDS011;23621;50.878;4.584;2023-10-09T07:34:59;14.43;;;10.05;;
37781;SDS011;23621;50.878;4.584;2023-10-09T07:37:46;15.85;;;10.18;;
37781;SDS011;23621;50.878;4.584;2023-10-09T07:40:38;15.02;;;9.88;;
37781;SDS011;23621;50.878;4.584;2023-10-09T07:43:44;16.13;;;10.13;;
37781;SDS011;23621;50.878;4.584;2023-10-09T07:46:31;13.15;;;10.20;;
37781;SDS011;23621;50.878;4.584;2023-10-09T07:49:20;13.93;;;10.55;;
37781;SDS011;23621;50.878;4.584;2023-10-09T07:52:13;14.32;;;10.45;;
37781;SDS011;23621;50.878;4.584;2023-10-09T07:55:01;14.55;;;10.38;;
37781;SDS011;23621;50.878;4.584;2023-10-09T07:57:49;17.05;;;10.55;;
37781;SDS011;23621;50.878;4.584;2023-10-09T08:00:39;15.50;;;11.20;;
37781;SDS011;23621;50.878;4.584;2023-10-09T08:03:48;13.55;;;10.02;;
37781;SDS011;23621;50.878;4.584;2023-10-09T08:06:44;17.75;;;10.63;;
37781;SDS011;23621;50.878;4.584;2023-10-09T08:09:51;15.82;;;10.57;;
37781;SDS011;23621;50.878;4.584;2023-10-09T08:12:59;14.73;;;11.07;;
37781;SDS011;23621;50.878;4.584;2023-10-09T08:16:08;16.85;;;11.20;;
37781;SDS011;23621;50.878;4.584;2023-10-09T08:19:04;16.65;;;11.07;;
37781;SDS011;23621;50.878;4.584;2023-10-09T08:25:16;22.33;;;12.48;;
37781;SDS011;23621;50.878;4.584;2023-10-09T08:28:18;26.30;;;12.50;;
37781;SDS011;23621;50.878;4.584;2023-10-09T08:31:24;24.55;;;12.25;;
37781;SDS011;23621;50.878;4.584;2023-10-09T08:34:30;23.67;;;11.63;;
37781;SDS011;23621;50.878;4.584;2023-10-09T08:37:37;24.42;;;11.35;;
37781;SDS011;23621;50.878;4.584;2023-10-09T08:40:34;14.95;;;10.50;;
37781;SDS011;23621;50.878;4.584;2023-10-09T08:43:26;14.20;;;10.40;;
37781;SDS011;23621;50.878;4.584;2023-10-09T08:46:22;16.25;;;11.40;;
37781;SDS011;23621;50.878;4.584;2023-10-09T08:49:14;12.85;;;10.40;;
37781;SDS011;23621;50.878;4.584;2023-10-09T08:52:02;16.17;;;10.98;;
37781;SDS011;23621;50.878;4.584;2023-10-09T08:54:51;15.20;;;10.98;;
37781;SDS011;23621;50.878;4.584;2023-10-09T08:57:41;16.38;;;11.45;;
37781;SDS011;23621;50.878;4.584;2023-10-09T09:00:31;13.73;;;9.55;;
37781;SDS011;23621;50.878;4.584;2023-10-09T09:03:20;19.58;;;11.52;;
37781;SDS011;23621;50.878;4.584;2023-10-09T09:06:11;22.33;;;11.15;;
37781;SDS011;23621;50.878;4.584;2023-10-09T09:09:09;17.02;;;10.52;;
37781;SDS011;23621;50.878;4.584;2023-10-09T09:12:03;14.45;;;9.68;;
37781;SDS011;23621;50.878;4.584;2023-10-09T09:14:52;13.52;;;9.88;;
37781;SDS011;23621;50.878;4.584;2023-10-09T09:17:40;13.80;;;10.60;;
37781;SDS011;23621;50.878;4.584;2023-10-09T09:20:28;15.73;;;9.57;;
37781;SDS011;23621;50.878;4.584;2023-10-09T09:23:27;15.13;;;9.35;;
37781;SDS011;23621;50.878;4.584;2023-10-09T09:26:14;13.98;;;8.85;;
37781;SDS011;23621;50.878;4.584;2023-10-09T09:29:05;13.23;;;9.07;;
37781;SDS011;23621;50.878;4.584;2023-10-09T09:31:53;15.35;;;9.23;;
37781;SDS011;23621;50.878;4.584;2023-10-09T09:34:53;13.00;;;8.82;;
37781;SDS011;23621;50.878;4.584;2023-10-09T09:37:42;11.52;;;8.60;;
37781;SDS011;23621;50.878;4.584;2023-10-09T09:40:38;14.27;;;9.38;;
37781;SDS011;23621;50.878;4.584;2023-10-09T09:43:29;13.77;;;10.18;;
37781;SDS011;23621;50.878;4.584;2023-10-09T09:46:25;16.85;;;10.00;;
37781;SDS011;23621;50.878;4.584;2023-10-09T09:49:20;15.32;;;10.20;;
37781;SDS011;23621;50.878;4.584;2023-10-09T09:52:11;14.85;;;10.07;;
37781;SDS011;23621;50.878;4.584;2023-10-09T09:54:59;13.90;;;9.95;;
37781;SDS011;23621;50.878;4.584;2023-10-09T09:57:49;12.63;;;9.85;;
37781;SDS011;23621;50.878;4.584;2023-10-09T10:00:39;15.07;;;10.15;;
37781;SDS011;23621;50.878;4.584;2023-10-09T10:03:30;15.60;;;10.32;;
37781;SDS011;23621;50.878;4.584;2023-10-09T10:06:24;14.55;;;9.23;;
37781;SDS011;23621;50.878;4.584;2023-10-09T10:15:57;11.75;;;8.63;;
37781;SDS011;23621;50.878;4.584;2023-10-09T10:18:53;11.88;;;9.07;;
37781;SDS011;23621;50.878;4.584;2023-10-09T10:21:47;12.93;;;9.98;;
37781;SDS011;23621;50.878;4.584;2023-10-09T10:24:41;13.35;;;9.80;;
37781;SDS011;23621;50.878;4.584;2023-10-09T10:34:55;12.93;;;9.57;;
37781;SDS011;23621;50.878;4.584;2023-10-09T10:37:46;15.18;;;9.48;;
37781;SDS011;23621;50.878;4.584;2023-10-09T10:40:50;13.13;;;9.35;;
37781;SDS011;23621;50.878;4.584;2023-10-09T10:43:44;15.90;;;9.65;;
37781;SDS011;23621;50.878;4.584;2023-10-09T10:46:40;11.35;;;9.27;;
37781;SDS011;23621;50.878;4.584;2023-10-09T10:49:31;15.15;;;9.07;;
37781;SDS011;23621;50.878;4.584;2023-10-09T10:52:25;12.45;;;9.30;;
37781;SDS011;23621;50.878;4.584;2023-10-09T10:55:23;19.80;;;10.73;;
37781;SDS011;23621;50.878;4.584;2023-10-09T10:58:22;13.20;;;9.82;;
37781;SDS011;23621;50.878;4.584;2023-10-09T11:01:22;15.57;;;9.82;;
37781;SDS011;23621;50.878;4.584;2023-10-09T11:04:12;13.82;;;9.55;;
37781;SDS011;23621;50.878;4.584;2023-10-09T11:07:01;13.23;;;9.82;;
37781;SDS011;23621;50.878;4.584;2023-10-09T11:10:04;13.13;;;10.30;;
37781;SDS011;23621;50.878;4.584;2023-10-09T11:12:53;16.38;;;10.15;;
37781;SDS011;23621;50.878;4.584;2023-10-09T11:15:40;13.43;;;9.32;;
37781;SDS011;23621;50.878;4.584;2023-10-09T11:18:42;13.25;;;8.88;;
37781;SDS011;23621;50.878;4.584;2023-10-09T11:21:32;14.05;;;9.82;;
37781;SDS011;23621;50.878;4.584;2023-10-09T11:24:27;14.10;;;9.25;;
37781;SDS011;23621;50.878;4.584;2023-10-09T11:27:21;11.68;;;9.75;;
37781;SDS011;23621;50.878;4.584;2023-10-09T11:30:11;13.68;;;9.45;;
37781;SDS011;23621;50.878;4.584;2023-10-09T11:33:08;16.05;;;9.93;;
37781;SDS011;23621;50.878;4.584;2023-10-09T11:36:01;12.82;;;8.93;;
37781;SDS011;23621;50.878;4.584;2023-10-09T11:38:53;13.90;;;8.98;;
37781;SDS011;23621;50.878;4.584;2023-10-09T11:42:00;14.40;;;9.27;;
37781;SDS011;23621;50.878;4.584;2023-10-09T11:44:51;12.45;;;8.38;;
37781;SDS011;23621;50.878;4.584;2023-10-09T11:47:42;12.43;;;9.20;;
37781;SDS011;23621;50.878;4.584;2023-10-09T11:50:43;17.30;;;9.18;;
37781;SDS011;23621;50.878;4.584;2023-10-09T11:53:41;11.80;;;8.32;;
37781;SDS011;23621;50.878;4.584;2023-10-09T11:56:30;12.15;;;7.88;;
37781;SDS011;23621;50.878;4.584;2023-10-09T11:59:19;9.70;;;7.55;;
37781;SDS011;23621;50.878;4.584;2023-10-09T12:02:07;11.93;;;8.05;;
37781;SDS011;23621;50.878;4.584;2023-10-09T12:04:59;10.68;;;8.20;;
37781;SDS011;23621;50.878;4.584;2023-10-09T12:07:47;13.70;;;8.18;;
37781;SDS011;23621;50.878;4.584;2023-10-09T12:10:41;13.45;;;8.80;;
37781;SDS011;23621;50.878;4.584;2023-10-09T12:13:29;12.10;;;8.07;;
37781;SDS011;23621;50.878;4.584;2023-10-09T12:16:18;11.95;;;8.60;;
37781;SDS011;23621;50.878;4.584;2023-10-09T12:19:05;11.75;;;8.07;;
37781;SDS011;23621;50.878;4.584;2023-10-09T12:21:56;11.90;;;8.23;;
37781;SDS011;23621;50.878;4.584;2023-10-09T12:24:43;13.68;;;8.57;;
37781;SDS011;23621;50.878;4.584;2023-10-09T12:27:32;11.85;;;9.00;;
37781;SDS011;23621;50.878;4.584;2023-10-09T12:30:20;17.48;;;9.38;;
37781;SDS011;23621;50.878;4.584;2023-10-09T12:33:13;9.68;;;8.45;;
37781;SDS011;23621;50.878;4.584;2023-10-09T12:36:02;15.52;;;8.50;;
37781;SDS011;23621;50.878;4.584;2023-10-09T12:38:51;12.85;;;7.93;;
37781;SDS011;23621;50.878;4.584;2023-10-09T12:41:45;11.75;;;8.70;;
37781;SDS011;23621;50.878;4.584;2023-10-09T12:44:33;11.75;;;9.27;;
37781;SDS011;23621;50.878;4.584;2023-10-09T12:47:25;14.75;;;9.38;;
37781;SDS011;23621;50.878;4.584;2023-10-09T12:50:13;11.73;;;9.20;;
37781;SDS011;23621;50.878;4.584;2023-10-09T12:53:01;14.38;;;9.25;;
37781;SDS011;23621;50.878;4.584;2023-10-09T12:55:54;13.40;;;8.27;;
37781;SDS011;23621;50.878;4.584;2023-10-09T12:58:43;13.23;;;9.35;;
37781;SDS011;23621;50.878;4.584;2023-10-09T13:01:43;11.63;;;8.65;;
37781;SDS011;23621;50.878;4.584;2023-10-09T13:04:30;13.05;;;8.90;;
37781;SDS011;23621;50.878;4.584;2023-10-09T13:07:19;12.73;;;10.02;;
37781;SDS011;23621;50.878;4.584;2023-10-09T13:10:08;15.95;;;9.40;;
37781;SDS011;23621;50.878;4.584;2023-10-09T13:12:56;11.15;;;9.45;;
37781;SDS011;23621;50.878;4.584;2023-10-09T13:15:43;13.90;;;9.90;;
37781;SDS011;23621;50.878;4.584;2023-10-09T13:18:31;14.07;;;10.05;;
37781;SDS011;23621;50.878;4.584;2023-10-09T13:24:07;14.30;;;9.65;;
37781;SDS011;23621;50.878;4.584;2023-10-09T13:27:02;13.40;;;9.30;;
37781;SDS011;23621;50.878;4.584;2023-10-09T13:29:51;18.33;;;9.35;;
37781;SDS011;23621;50.878;4.584;2023-10-09T13:32:39;12.02;;;9.93;;
37781;SDS011;23621;50.878;4.584;2023-10-09T13:35:26;15.25;;;9.93;;
37781;SDS011;23621;50.878;4.584;2023-10-09T13:38:24;14.18;;;10.02;;
37781;SDS011;23621;50.878;4.584;2023-10-09T13:41:13;13.15;;;9.50;;
37781;SDS011;23621;50.878;4.584;2023-10-09T13:44:01;14.37;;;10.77;;
37781;SDS011;23621;50.878;4.584;2023-10-09T13:46:49;16.98;;;10.82;;
37781;SDS011;23621;50.878;4.584;2023-10-09T13:49:37;15.02;;;9.38;;
37781;SDS011;23621;50.878;4.584;2023-10-09T13:52:29;14.02;;;9.75;;
37781;SDS011;23621;50.878;4.584;2023-10-09T13:55:17;13.43;;;9.18;;
37781;SDS011;23621;50.878;4.584;2023-10-09T13:58:05;13.85;;;9.93;;
37781;SDS011;23621;50.878;4.584;2023-10-09T14:01:00;16.55;;;11.13;;
37781;SDS011;23621;50.878;4.584;2023-10-09T14:03:47;13.75;;;9.93;;
37781;SDS011;23621;50.878;4.584;2023-10-09T14:06:37;17.70;;;10.20;;
37781;SDS011;23621;50.878;4.584;2023-10-09T14:09:24;14.60;;;10.20;;
37781;SDS011;23621;50.878;4.584;2023-10-09T14:12:24;15.23;;;10.32;;
37781;SDS011;23621;50.878;4.584;2023-10-09T14:15:16;12.07;;;9.23;;
37781;SDS011;23621;50.878;4.584;2023-10-09T14:18:04;14.32;;;10.38;;
37781;SDS011;23621;50.878;4.584;2023-10-09T14:20:55;13.73;;;10.77;;
37781;SDS011;23621;50.878;4.584;2023-10-09T14:23:43;11.50;;;9.90;;
37781;SDS011;23621;50.878;4.584;2023-10-09T14:26:33;14.93;;;10.60;;
37781;SDS011;23621;50.878;4.584;2023-10-09T14:29:21;12.40;;;9.25;;
37781;SDS011;23621;50.878;4.584;2023-10-09T14:32:11;14.07;;;10.38;;
37781;SDS011;23621;50.878;4.584;2023-10-09T14:35:00;14.73;;;11.57;;
37781;SDS011;23621;50.878;4.584;2023-10-09T14:37:48;15.88;;;10.93;;
37781;SDS011;23621;50.878;4.584;2023-10-09T14:40:35;12.70;;;10.52;;
37781;SDS011;23621;50.878;4.584;2023-10-09T14:43:28;13.95;;;9.95;;
37781;SDS011;23621;50.878;4.584;2023-10-09T14:46:20;13.52;;;10.10;;
37781;SDS011;23621;50.878;4.584;2023-10-09T14:49:13;15.52;;;10.85;;
37781;SDS011;23621;50.878;4.584;2023-10-09T14:52:01;12.80;;;9.60;;
37781;SDS011;23621;50.878;4.584;2023-10-09T14:54:48;14.20;;;10.23;;
37781;SDS011;23621;50.878;4.584;2023-10-09T14:57:37;12.57;;;9.20;;
37781;SDS011;23621;50.878;4.584;2023-10-09T15:00:24;13.07;;;10.68;;
37781;SDS011;23621;50.878;4.584;2023-10-09T15:03:13;14.95;;;10.13;;
37781;SDS011;23621;50.878;4.584;2023-10-09T15:06:06;11.35;;;9.50;;
37781;SDS011;23621;50.878;4.584;2023-10-09T15:08:57;12.88;;;9.73;;
37781;SDS011;23621;50.878;4.584;2023-10-09T15:11:45;13.60;;;10.00;;
37781;SDS011;23621;50.878;4.584;2023-10-09T15:14:35;16.52;;;11.45;;
37781;SDS011;23621;50.878;4.584;2023-10-09T15:17:23;13.75;;;9.93;;
37781;SDS011;23621;50.878;4.584;2023-10-09T15:20:11;10.75;;;8.63;;
37781;SDS011;23621;50.878;4.584;2023-10-09T15:23:02;13.85;;;10.38;;
37781;SDS011;23621;50.878;4.584;2023-10-09T15:25:49;15.98;;;10.52;;
37781;SDS011;23621;50.878;4.584;2023-10-09T15:28:38;13.13;;;9.93;;
37781;SDS011;23621;50.878;4.584;2023-10-09T15:31:27;13.93;;;9.75;;
37781;SDS011;23621;50.878;4.584;2023-10-09T15:34:15;12.30;;;9.10;;
37781;SDS011;23621;50.878;4.584;2023-10-09T15:37:05;13.95;;;9.38;;
37781;SDS011;23621;50.878;4.584;2023-10-09T15:39:54;13.38;;;10.05;;
37781;SDS011;23621;50.878;4.584;2023-10-09T15:42:42;13.52;;;9.50;;
37781;SDS011;23621;50.878;4.584;2023-10-09T15:45:43;14.10;;;8.90;;
37781;SDS011;23621;50.878;4.584;2023-10-09T15:48:36;14.05;;;9.88;;
37781;SDS011;23621;50.878;4.584;2023-10-09T15:51:23;11.75;;;9.50;;
37781;SDS011;23621;50.878;4.584;2023-10-09T15:54:12;10.25;;;8.35;;
37781;SDS011;23621;50.878;4.584;2023-10-09T15:57:03;16.15;;;9.57;;
37781;SDS011;23621;50.878;4.584;2023-10-09T15:59:59;13.07;;;8.80;;
37781;SDS011;23621;50.878;4.584;2023-10-09T16:02:48;13.30;;;10.02;;
37781;SDS011;23621;50.878;4.584;2023-10-09T16:05:40;13.38;;;9.93;;
37781;SDS011;23621;50.878;4.584;2023-10-09T16:08:27;12.30;;;8.90;;
37781;SDS011;23621;50.878;4.584;2023-10-09T16:11:18;11.73;;;8.85;;
37781;SDS011;23621;50.878;4.584;2023-10-09T16:14:06;13.65;;;8.27;;
37781;SDS011;23621;50.878;4.584;2023-10-09T16:16:56;13.77;;;9.52;;
37781;SDS011;23621;50.878;4.584;2023-10-09T16:19:44;11.95;;;9.05;;
37781;SDS011;23621;50.878;4.584;2023-10-09T16:22:32;12.50;;;8.55;;
37781;SDS011;23621;50.878;4.584;2023-10-09T16:25:19;16.00;;;8.90;;
37781;SDS011;23621;50.878;4.584;2023-10-09T16:28:11;11.75;;;8.63;;
37781;SDS011;23621;50.878;4.584;2023-10-09T16:30:58;12.85;;;10.00;;
37781;SDS011;23621;50.878;4.584;2023-10-09T16:33:46;14.52;;;9.85;;
37781;SDS011;23621;50.878;4.584;2023-10-09T16:36:39;10.65;;;9.00;;
37781;SDS011;23621;50.878;4.584;2023-10-09T16:39:27;13.77;;;8.73;;
37781;SDS011;23621;50.878;4.584;2023-10-09T16:42:21;11.32;;;8.95;;
37781;SDS011;23621;50.878;4.584;2023-10-09T16:45:11;13.73;;;9.30;;
37781;SDS011;23621;50.878;4.584;2023-10-09T16:48:04;12.50;;;9.55;;
37781;SDS011;23621;50.878;4.584;2023-10-09T16:50:55;13.75;;;9.73;;
37781;SDS011;23621;50.878;4.584;2023-10-09T16:53:43;11.65;;;9.52;;
37781;SDS011;23621;50.878;4.584;2023-10-09T16:56:30;11.35;;;9.48;;
37781;SDS011;23621;50.878;4.584;2023-10-09T16:59:20;16.33;;;9.82;;
37781;SDS011;23621;50.878;4.584;2023-10-09T17:02:08;12.85;;;9.57;;
37781;SDS011;23621;50.878;4.584;2023-10-09T17:05:00;14.02;;;10.07;;
37781;SDS011;23621;50.878;4.584;2023-10-09T17:07:49;14.77;;;9.90;;
37781;SDS011;23621;50.878;4.584;2023-10-09T17:10:37;12.70;;;9.65;;
37781;SDS011;23621;50.878;4.584;2023-10-09T17:13:32;14.63;;;10.25;;
37781;SDS011;23621;50.878;4.584;2023-10-09T17:16:20;14.45;;;9.95;;
37781;SDS011;23621;50.878;4.584;2023-10-09T17:19:08;12.98;;;10.27;;
37781;SDS011;23621;50.878;4.584;2023-10-09T17:21:55;12.23;;;9.68;;